Terminal Aerodrome Forecast
Issued by NWS

Home | Current Version | Previous Version | Text Only | Print | Product List | Glossary On
Versions: 1 2 3 4 5 6 7 8 9 10 11 12
000
FTUS46 KLOX 211100
TAFPMD
TAF
KPMD 211138Z 2112/2212 20008KT P6SM SKC
     FM212200 23018G28KT P6SM VCSH SCT070 SCT120 SCT250
     FM220400 23012KT P6SM SCT250=

USA.gov is the U.S. government's official web portal to all federal, state and local government web resources and services.